This is the latest recevied weather packets stored in our database for station/object NM5PB-13. If no packets are shown the sender has not sent any weather packets the latest 10 day(s).
| Time | Temp. | Humidity | Pressure | Rain* | Wind** | Luminosity | Snow |
|---|---|---|---|---|---|---|---|
| 1787781844 | 27.22° C | 58% | 1014 hPa | 0 mm | - | - | - |
| 1787780942 | 27.78° C | 56% | 1014 hPa | 0 mm | - | - | - |
| 1787780036 | 27.22° C | 58% | 1014 hPa | 0 mm | - | - | - |
| 1787779133 | 27.22° C | 56% | 1014 hPa | 0 mm | - | - | - |
| 1787778229 | 27.22° C | 57% | 1014 hPa | 0 mm | - | - | - |
| 1787777325 | 26.67° C | 57% | 1014 hPa | 0 mm | - | - | - |
| 1787776419 | 26.67° C | 58% | 1014 hPa | 0 mm | - | - | - |
| 1787775516 | 27.78° C | 55% | 1015 hPa | 0 mm | - | - | - |
| 1787774612 | 27.78° C | 55% | 1015 hPa | 0 mm | - | - | - |
| 1787773707 | 27.78° C | 56% | 1015 hPa | 0 mm | - | - | - |
| 1787772804 | 27.78° C | 57% | 1015 hPa | 0 mm | - | - | - |
| 1787771901 | 27.78° C | 57% | 1015 hPa | 0 mm | - | - | - |
| 1787770996 | 27.78° C | 56% | 1015 hPa | 0 mm | - | - | - |
| 1787770092 | 27.78° C | 55% | 1015 hPa | 0 mm | - | - | - |
| 1787769188 | 26.67° C | 58% | 1015 hPa | 0 mm | - | - | - |
| 1787768284 | 27.22° C | 57% | 1015 hPa | 0 mm | - | - | - |
| 1787767379 | 27.22° C | 57% | 1015 hPa | 0 mm | - | - | - |
| 1787766476 | 27.22° C | 56% | 1015 hPa | 0 mm | - | - | - |
| 1787765571 | 27.22° C | 57% | 1015 hPa | 0 mm | - | - | - |
| 1787764668 | 27.22° C | 57% | 1015 hPa | 0 mm | - | - | - |
| 1787763766 | 26.67° C | 59% | 1015 hPa | 0 mm | - | - | - |
| 1787762862 | 26.67° C | 59% | 1015 hPa | 0 mm | - | - | - |
| 1787761956 | 26.67° C | 60% | 1015 hPa | 0 mm | - | - | - |
| 1787761051 | 26.11° C | 63% | 1015 hPa | 0 mm | - | - | - |
| 1787760148 | 26.11° C | 65% | 1015 hPa | 0 mm | - | - | - |
* Rain latest hour (hover to see other rain measurements)
** Current wind speed in m/s (hover to see current wind gust speed)